Time;durP1;ratioP1;P1;durP2;ratioP2;P2;SDS_P1;SDS_P2;PMS_P1;PMS_P2;Temp;Humidity;BMP_temperature;BMP_pressure;BME280_temperature;BME280_humidity;BME280_pressure;Samples;Min_cycle;Max_cycle;Signal;HPM_P1;HPM_P2
2022/12/30 00:01:59;;;;;;;8.10;2.17;;;;;;;;;;4964301;28;20070;-86
2022/12/30 00:04:32;;;;;;;8.63;2.28;;;;;;;;;;4954298;28;20043;-87
2022/12/30 00:07:00;;;;;;;11.50;2.38;;;;;;;;;;4970444;28;20047;-86
2022/12/30 00:09:57;;;;;;;10.55;2.60;;;;;;;;;;4967645;28;20461;-87
2022/12/30 00:35:11;;;;;;;9.25;3.58;;;;;;;;;;4967542;28;20035;-87
2022/12/30 00:37:40;;;;;;;35.30;9.70;;;;;;;;;;4966960;28;20122;-87
2022/12/30 00:40:12;;;;;;;18.90;5.47;;;;;;;;;;4971556;28;20042;-86
2022/12/30 00:45:26;;;;;;;11.18;3.00;;;;;;;;;;4967372;28;20043;-87
2022/12/30 00:47:54;;;;;;;17.33;6.10;;;;;;;;;;4985913;28;20053;-87
2022/12/30 00:56:09;;;;;;;18.20;8.57;;;;;;;;;;4962444;28;20053;-87
2022/12/30 00:59:06;;;;;;;10.18;3.20;;;;;;;;;;4963137;28;20111;-87
2022/12/30 01:01:33;;;;;;;19.33;5.10;;;;;;;;;;4961861;28;20410;-87
2022/12/30 01:04:02;;;;;;;13.55;5.15;;;;;;;;;;4962589;28;20061;-87
2022/12/30 01:06:54;;;;;;;8.27;3.08;;;;;;;;;;4962445;28;20468;-87
2022/12/30 01:09:22;;;;;;;14.82;4.43;;;;;;;;;;4964211;28;20055;-87
2022/12/30 01:12:07;;;;;;;13.40;3.25;;;;;;;;;;4961819;28;20035;-87
2022/12/30 01:14:43;;;;;;;15.77;5.57;;;;;;;;;;4984453;28;20111;-87
2022/12/30 01:17:12;;;;;;;9.70;4.00;;;;;;;;;;4963116;28;20047;-87
2022/12/30 01:19:45;;;;;;;12.98;3.97;;;;;;;;;;4963283;28;20043;-87
2022/12/30 01:22:12;;;;;;;21.42;5.28;;;;;;;;;;4965741;28;20111;-87
2022/12/30 01:24:39;;;;;;;8.02;3.60;;;;;;;;;;4975613;28;20505;-87
2022/12/30 01:27:12;;;;;;;12.50;4.75;;;;;;;;;;4963778;28;20062;-88
2022/12/30 01:29:41;;;;;;;11.20;4.18;;;;;;;;;;4961558;28;20042;-87
2022/12/30 01:32:13;;;;;;;8.80;3.17;;;;;;;;;;4978223;28;20115;-87
2022/12/30 01:34:40;;;;;;;14.90;3.78;;;;;;;;;;4979242;28;20047;-87
2022/12/30 01:37:08;;;;;;;10.45;3.13;;;;;;;;;;4979267;28;20043;-87
2022/12/30 01:39:36;;;;;;;7.13;3.17;;;;;;;;;;4984284;28;20520;-87
2022/12/30 01:42:20;;;;;;;9.23;3.67;;;;;;;;;;4972860;28;20043;-87
2022/12/30 01:45:23;;;;;;;8.90;3.00;;;;;;;;;;4979357;28;20262;-87
2022/12/30 01:47:54;;;;;;;15.32;3.40;;;;;;;;;;4964324;28;20091;-87
2022/12/30 01:50:35;;;;;;;8.35;3.70;;;;;;;;;;4966884;28;20468;-87
2022/12/30 01:53:08;;;;;;;14.20;2.63;;;;;;;;;;4969451;28;20066;-87
2022/12/30 01:55:50;;;;;;;13.20;5.13;;;;;;;;;;4962182;28;20042;-87
2022/12/30 01:58:30;;;;;;;9.57;3.72;;;;;;;;;;4960035;28;20046;-88
2022/12/30 02:00:57;;;;;;;19.88;3.92;;;;;;;;;;4963187;28;20089;-88
2022/12/30 02:04:20;;;;;;;14.77;3.67;;;;;;;;;;4961778;28;20588;-88
2022/12/30 02:06:59;;;;;;;17.42;4.10;;;;;;;;;;4927562;29;20052;-87
2022/12/30 02:09:31;;;;;;;16.33;5.03;;;;;;;;;;4926999;29;20043;-87
2022/12/30 02:12:06;;;;;;;15.85;4.03;;;;;;;;;;4929162;29;20098;-87
2022/12/30 02:14:36;;;;;;;10.82;2.70;;;;;;;;;;4930387;29;20578;-87
2022/12/30 02:17:24;;;;;;;18.45;3.60;;;;;;;;;;4931251;29;20048;-87
2022/12/30 02:19:57;;;;;;;9.18;2.53;;;;;;;;;;4931191;29;20047;-87
2022/12/30 02:23:03;;;;;;;10.35;3.30;;;;;;;;;;4915026;29;20050;-87
2022/12/30 02:25:58;;;;;;;9.10;2.80;;;;;;;;;;4931274;29;20051;-87
2022/12/30 02:28:31;;;;;;;10.65;3.03;;;;;;;;;;4929574;29;20067;-87
2022/12/30 02:31:12;;;;;;;11.40;2.65;;;;;;;;;;4929856;29;20058;-88
2022/12/30 02:33:53;;;;;;;7.32;2.97;;;;;;;;;;4928863;29;20051;-87
2022/12/30 02:36:55;;;;;;;12.65;2.92;;;;;;;;;;4929239;29;20074;-87
2022/12/30 02:39:36;;;;;;;11.75;2.72;;;;;;;;;;4930554;29;20070;-87
2022/12/30 02:45:39;;;;;;;12.55;2.80;;;;;;;;;;4965390;28;20026;-86
2022/12/30 02:48:20;;;;;;;7.63;2.40;;;;;;;;;;4964253;28;20121;-88
2022/12/30 02:53:41;;;;;;;11.50;3.15;;;;;;;;;;4961523;28;20039;-87
2022/12/30 02:56:10;;;;;;;14.95;3.30;;;;;;;;;;4960489;28;20047;-87
2022/12/30 02:58:43;;;;;;;23.23;3.40;;;;;;;;;;4981514;28;20486;-87
2022/12/30 03:04:34;;;;;;;10.82;2.65;;;;;;;;;;4909876;29;20063;-87
2022/12/30 03:07:17;;;;;;;13.43;3.58;;;;;;;;;;4893043;29;20071;-86
2022/12/30 03:13:12;;;;;;;15.63;3.13;;;;;;;;;;4908781;29;20062;-87
2022/12/30 03:15:47;;;;;;;15.18;2.35;;;;;;;;;;4894789;29;20064;-87
2022/12/30 03:18:40;;;;;;;11.70;2.50;;;;;;;;;;4909647;29;20044;-87
2022/12/30 03:21:11;;;;;;;9.82;2.50;;;;;;;;;;4883183;29;20051;-87
2022/12/30 03:27:03;;;;;;;7.93;1.90;;;;;;;;;;4908278;29;20052;-87
2022/12/30 03:29:48;;;;;;;12.93;2.42;;;;;;;;;;4906817;29;20068;-87
2022/12/30 03:32:18;;;;;;;12.43;2.60;;;;;;;;;;4908728;29;20048;-87
2022/12/30 03:34:50;;;;;;;19.48;2.95;;;;;;;;;;4909594;29;20056;-87
2022/12/30 03:37:25;;;;;;;16.40;2.53;;;;;;;;;;4897874;29;20040;-86
2022/12/30 03:40:28;;;;;;;13.73;2.67;;;;;;;;;;4908792;29;20047;-87
2022/12/30 03:42:56;;;;;;;14.10;2.55;;;;;;;;;;4966069;28;20047;-87
2022/12/30 03:45:24;;;;;;;14.85;3.10;;;;;;;;;;4965860;28;20043;-86
2022/12/30 03:47:51;;;;;;;17.35;3.17;;;;;;;;;;4964894;28;20085;-86
2022/12/30 03:50:23;;;;;;;10.55;2.67;;;;;;;;;;4965659;28;20125;-87
2022/12/30 03:53:15;;;;;;;10.88;3.25;;;;;;;;;;4968684;28;20035;-87
2022/12/30 03:55:47;;;;;;;10.38;2.50;;;;;;;;;;4964295;28;20035;-87
2022/12/30 03:58:21;;;;;;;10.23;2.70;;;;;;;;;;4963582;28;20043;-86
2022/12/30 04:00:50;;;;;;;12.50;3.00;;;;;;;;;;4963989;28;20062;-87
2022/12/30 04:03:18;;;;;;;6.13;2.70;;;;;;;;;;4963050;28;20031;-87
2022/12/30 04:05:46;;;;;;;8.20;3.00;;;;;;;;;;4965189;28;20039;-87
2022/12/30 04:08:19;;;;;;;15.35;3.40;;;;;;;;;;4965661;28;20604;-87
2022/12/30 04:10:48;;;;;;;14.55;4.07;;;;;;;;;;4963531;28;20047;-87
2022/12/30 04:13:21;;;;;;;10.65;2.30;;;;;;;;;;4965382;28;20051;-87
2022/12/30 04:15:50;;;;;;;10.07;2.70;;;;;;;;;;4962943;28;20590;-87
2022/12/30 04:18:24;;;;;;;13.85;2.83;;;;;;;;;;4964607;28;20043;-87
2022/12/30 04:20:51;;;;;;;13.77;3.15;;;;;;;;;;4965459;28;20138;-87
2022/12/30 04:23:19;;;;;;;8.45;2.70;;;;;;;;;;4963973;28;20053;-87
2022/12/30 04:25:52;;;;;;;10.45;2.78;;;;;;;;;;4969209;28;20039;-87
2022/12/30 04:28:23;;;;;;;10.63;2.55;;;;;;;;;;4964037;28;20047;-87
2022/12/30 04:31:18;;;;;;;13.10;3.55;;;;;;;;;;4964804;28;20138;-87
2022/12/30 04:33:52;;;;;;;12.38;3.20;;;;;;;;;;4963487;28;20047;-87
2022/12/30 04:36:21;;;;;;;16.13;2.85;;;;;;;;;;4965113;28;20047;-87
2022/12/30 04:38:48;;;;;;;16.35;2.78;;;;;;;;;;4965080;28;20042;-87
2022/12/30 04:41:40;;;;;;;13.68;3.03;;;;;;;;;;4962600;28;20114;-87
2022/12/30 04:44:07;;;;;;;12.15;2.83;;;;;;;;;;4965233;28;20039;-87
2022/12/30 04:46:35;;;;;;;9.45;2.83;;;;;;;;;;4976375;28;20405;-87
2022/12/30 04:49:07;;;;;;;14.23;2.80;;;;;;;;;;4963432;28;20042;-87
2022/12/30 04:51:35;;;;;;;12.07;2.53;;;;;;;;;;4965177;28;20051;-87
2022/12/30 04:54:04;;;;;;;14.90;2.60;;;;;;;;;;4966128;28;20486;-87
2022/12/30 04:56:31;;;;;;;9.48;2.67;;;;;;;;;;4966341;28;20109;-87
2022/12/30 04:58:59;;;;;;;12.45;2.63;;;;;;;;;;4964476;28;20050;-87
2022/12/30 05:01:28;;;;;;;11.18;2.58;;;;;;;;;;4964414;28;20031;-87
2022/12/30 05:03:55;;;;;;;15.30;3.17;;;;;;;;;;4960522;28;20123;-87
2022/12/30 05:06:49;;;;;;;9.18;2.20;;;;;;;;;;4963794;28;20049;-87
2022/12/30 05:09:41;;;;;;;13.77;2.58;;;;;;;;;;4963780;28;20430;-87
2022/12/30 05:12:09;;;;;;;10.07;2.45;;;;;;;;;;4964804;28;20039;-87
2022/12/30 05:14:41;;;;;;;13.45;2.78;;;;;;;;;;4961077;28;20048;-87
2022/12/30 05:17:35;;;;;;;7.93;2.55;;;;;;;;;;4964938;28;20035;-87
2022/12/30 05:20:04;;;;;;;13.98;2.50;;;;;;;;;;4965571;28;20039;-87
2022/12/30 05:22:31;;;;;;;14.20;3.00;;;;;;;;;;4963389;28;20062;-87
2022/12/30 05:27:49;;;;;;;9.82;2.22;;;;;;;;;;4983276;28;20042;-86
2022/12/30 05:30:18;;;;;;;12.48;2.83;;;;;;;;;;4962982;28;20036;-87
2022/12/30 05:32:50;;;;;;;10.70;2.45;;;;;;;;;;4950170;28;20138;-87
2022/12/30 05:35:18;;;;;;;10.35;2.67;;;;;;;;;;4963953;28;20047;-87
2022/12/30 05:37:48;;;;;;;8.85;2.85;;;;;;;;;;4962096;28;20031;-87
2022/12/30 05:40:16;;;;;;;16.67;2.95;;;;;;;;;;4962518;28;20596;-86
2022/12/30 05:42:44;;;;;;;12.80;2.88;;;;;;;;;;4965292;28;20039;-87
2022/12/30 05:45:41;;;;;;;14.35;2.65;;;;;;;;;;4963812;28;20031;-87
2022/12/30 05:48:09;;;;;;;14.02;2.53;;;;;;;;;;4961456;28;20079;-87
2022/12/30 05:50:39;;;;;;;9.38;2.90;;;;;;;;;;4964855;28;20561;-87
2022/12/30 05:53:07;;;;;;;14.40;2.67;;;;;;;;;;4963405;28;20042;-87
2022/12/30 05:55:39;;;;;;;9.55;2.78;;;;;;;;;;4966858;28;20047;-87
2022/12/30 05:58:07;;;;;;;14.68;3.00;;;;;;;;;;4963997;28;20093;-87
2022/12/30 06:00:40;;;;;;;9.80;2.90;;;;;;;;;;4963102;28;20043;-87
2022/12/30 06:03:08;;;;;;;7.32;2.70;;;;;;;;;;4962456;28;20102;-87
2022/12/30 06:06:05;;;;;;;12.25;2.80;;;;;;;;;;4963912;28;20041;-87
2022/12/30 06:08:35;;;;;;;19.83;3.30;;;;;;;;;;4968346;28;20043;-87
2022/12/30 06:11:02;;;;;;;15.20;3.83;;;;;;;;;;4963018;28;20404;-87
2022/12/30 06:13:29;;;;;;;12.13;3.38;;;;;;;;;;4961449;28;20041;-87
2022/12/30 06:15:57;;;;;;;10.73;3.08;;;;;;;;;;4959860;28;20126;-87
2022/12/30 06:18:29;;;;;;;17.70;3.30;;;;;;;;;;4960774;28;20038;-87
2022/12/30 06:20:58;;;;;;;16.63;3.35;;;;;;;;;;4961454;28;20035;-87
2022/12/30 06:23:49;;;;;;;17.38;3.22;;;;;;;;;;4959692;28;20380;-87
2022/12/30 06:26:41;;;;;;;9.73;3.10;;;;;;;;;;4960662;28;20110;-87
2022/12/30 06:29:10;;;;;;;9.00;3.60;;;;;;;;;;4957688;28;20402;-87
2022/12/30 06:31:37;;;;;;;10.80;3.33;;;;;;;;;;4963327;28;20046;-87
2022/12/30 06:34:05;;;;;;;13.13;3.95;;;;;;;;;;4961853;28;20035;-87
2022/12/30 06:36:37;;;;;;;9.55;2.90;;;;;;;;;;4963433;28;20551;-87
2022/12/30 06:39:06;;;;;;;13.90;3.38;;;;;;;;;;4974285;28;20039;-87
2022/12/30 06:41:38;;;;;;;16.58;3.08;;;;;;;;;;4963487;28;20057;-87
2022/12/30 06:44:06;;;;;;;11.60;2.90;;;;;;;;;;4965328;28;20070;-87
2022/12/30 06:46:33;;;;;;;15.25;3.70;;;;;;;;;;4961391;28;20047;-87
2022/12/30 06:49:01;;;;;;;15.25;3.33;;;;;;;;;;4961342;28;20097;-87
2022/12/30 06:51:29;;;;;;;11.45;2.92;;;;;;;;;;4976398;28;20478;-87
2022/12/30 06:53:57;;;;;;;9.88;2.72;;;;;;;;;;4964319;28;20035;-87
2022/12/30 06:56:26;;;;;;;13.82;3.20;;;;;;;;;;4960654;28;20039;-87
2022/12/30 06:58:53;;;;;;;8.77;3.00;;;;;;;;;;4961873;28;20051;-87
2022/12/30 07:01:21;;;;;;;20.02;3.22;;;;;;;;;;4964565;28;21030;-87
2022/12/30 07:03:49;;;;;;;11.32;3.00;;;;;;;;;;4961298;28;20067;-87
2022/12/30 07:06:17;;;;;;;16.95;3.70;;;;;;;;;;4962179;28;20041;-87
2022/12/30 07:08:45;;;;;;;11.07;3.55;;;;;;;;;;4962540;28;20723;-87
2022/12/30 07:11:14;;;;;;;9.68;2.53;;;;;;;;;;4964064;28;20154;-87
2022/12/30 07:14:05;;;;;;;12.43;3.65;;;;;;;;;;4965332;28;20723;-87
2022/12/30 07:16:59;;;;;;;12.85;3.13;;;;;;;;;;4966346;28;20035;-87
2022/12/30 07:19:27;;;;;;;10.15;3.10;;;;;;;;;;4966932;28;20047;-87
2022/12/30 07:21:55;;;;;;;17.45;3.75;;;;;;;;;;4966690;28;20129;-87
2022/12/30 07:24:51;;;;;;;18.10;3.80;;;;;;;;;;4981973;28;20046;-87
2022/12/30 07:27:24;;;;;;;15.07;2.83;;;;;;;;;;4964799;28;20032;-87
2022/12/30 07:29:52;;;;;;;12.75;2.80;;;;;;;;;;4966748;28;20678;-86
2022/12/30 07:32:23;;;;;;;8.13;2.92;;;;;;;;;;4964542;28;20050;-87
2022/12/30 07:34:51;;;;;;;10.27;2.55;;;;;;;;;;4967860;28;20039;-87
2022/12/30 07:37:19;;;;;;;10.00;3.53;;;;;;;;;;4968807;28;20114;-87
2022/12/30 07:39:47;;;;;;;13.52;3.95;;;;;;;;;;4964077;28;20062;-87
2022/12/30 07:42:15;;;;;;;11.90;2.90;;;;;;;;;;4965086;28;20043;-87
2022/12/30 07:44:44;;;;;;;16.48;2.70;;;;;;;;;;4981396;28;20046;-87
2022/12/30 07:47:15;;;;;;;19.73;2.80;;;;;;;;;;4980873;28;20035;-86
2022/12/30 07:49:43;;;;;;;14.15;3.90;;;;;;;;;;4965332;28;20086;-87
2022/12/30 07:52:11;;;;;;;10.45;3.35;;;;;;;;;;4971455;28;20046;-87
2022/12/30 07:54:39;;;;;;;15.23;3.53;;;;;;;;;;4967540;28;20066;-87
2022/12/30 07:57:07;;;;;;;7.03;3.30;;;;;;;;;;4963713;28;20078;-87
2022/12/30 07:59:35;;;;;;;14.82;4.18;;;;;;;;;;4965795;28;20101;-87
2022/12/30 08:02:11;;;;;;;17.02;4.13;;;;;;;;;;4963456;28;20505;-87
2022/12/30 08:05:04;;;;;;;11.38;3.03;;;;;;;;;;4966505;28;20053;-87
2022/12/30 08:07:55;;;;;;;13.13;3.58;;;;;;;;;;4956646;28;20042;-87
2022/12/30 08:10:27;;;;;;;10.63;3.00;;;;;;;;;;4965309;28;20067;-87
2022/12/30 08:12:56;;;;;;;17.52;3.47;;;;;;;;;;4966477;28;20458;-87
2022/12/30 08:15:27;;;;;;;17.23;3.45;;;;;;;;;;4980752;28;20045;-87
2022/12/30 08:18:01;;;;;;;13.27;3.42;;;;;;;;;;4966000;28;20047;-87
2022/12/30 08:20:29;;;;;;;10.30;3.30;;;;;;;;;;4966309;28;20042;-87
2022/12/30 08:22:57;;;;;;;15.60;3.63;;;;;;;;;;4979437;28;20049;-87
2022/12/30 08:25:29;;;;;;;15.15;3.35;;;;;;;;;;4966002;28;20078;-87
2022/12/30 08:27:57;;;;;;;8.82;3.10;;;;;;;;;;4963867;28;20059;-87
2022/12/30 08:30:26;;;;;;;11.43;3.08;;;;;;;;;;4965650;28;20039;-87
2022/12/30 08:33:20;;;;;;;12.75;3.38;;;;;;;;;;4964829;28;20538;-87
2022/12/30 08:36:14;;;;;;;16.42;3.17;;;;;;;;;;4988607;28;20043;-86
2022/12/30 08:38:46;;;;;;;9.38;3.55;;;;;;;;;;4982389;28;20478;-87
2022/12/30 08:41:24;;;;;;;10.85;2.88;;;;;;;;;;4966140;28;20090;-87
2022/12/30 08:43:56;;;;;;;14.60;2.70;;;;;;;;;;4975823;28;20085;-86
2022/12/30 08:46:27;;;;;;;11.98;3.10;;;;;;;;;;4962896;28;20043;-86
2022/12/30 08:48:55;;;;;;;10.48;2.75;;;;;;;;;;4963530;28;20043;-85
2022/12/30 08:51:28;;;;;;;17.00;2.78;;;;;;;;;;4964181;28;20070;-86
2022/12/30 08:53:55;;;;;;;17.35;2.92;;;;;;;;;;4961540;28;20047;-86
2022/12/30 08:56:29;;;;;;;15.45;2.90;;;;;;;;;;4961014;28;20078;-86
2022/12/30 08:58:59;;;;;;;13.75;3.00;;;;;;;;;;4962501;28;20059;-86
2022/12/30 09:01:29;;;;;;;16.88;2.92;;;;;;;;;;4962423;28;20125;-85
2022/12/30 09:04:06;;;;;;;11.60;3.10;;;;;;;;;;4968733;28;20393;-86
2022/12/30 09:06:59;;;;;;;13.45;2.97;;;;;;;;;;4961550;28;20043;-85
2022/12/30 09:09:28;;;;;;;11.35;2.90;;;;;;;;;;4960125;28;20039;-86
2022/12/30 09:11:56;;;;;;;16.48;2.92;;;;;;;;;;4959975;28;20493;-85
2022/12/30 09:14:24;;;;;;;16.63;3.05;;;;;;;;;;4963425;28;20039;-86
2022/12/30 09:16:52;;;;;;;9.27;2.88;;;;;;;;;;4960713;28;20074;-86
2022/12/30 09:19:23;;;;;;;20.40;3.08;;;;;;;;;;4960713;28;20039;-86
2022/12/30 09:21:51;;;;;;;8.77;2.75;;;;;;;;;;4966315;28;20043;-85
2022/12/30 09:24:20;;;;;;;13.63;2.70;;;;;;;;;;4976683;28;20042;-86
2022/12/30 09:26:48;;;;;;;15.38;2.60;;;;;;;;;;4962308;28;20035;-86
2022/12/30 09:29:16;;;;;;;16.38;3.08;;;;;;;;;;4960687;28;20400;-86
2022/12/30 09:31:44;;;;;;;10.85;2.47;;;;;;;;;;4962564;28;20078;-85
2022/12/30 09:34:12;;;;;;;12.40;2.60;;;;;;;;;;4961555;28;20053;-86
2022/12/30 09:36:40;;;;;;;11.55;2.80;;;;;;;;;;4979174;28;20445;-85
2022/12/30 09:39:07;;;;;;;11.48;2.50;;;;;;;;;;4961804;28;20044;-86
2022/12/30 09:44:59;;;;;;;18.13;2.50;;;;;;;;;;4960752;28;20051;-86
2022/12/30 09:47:40;;;;;;;9.18;2.85;;;;;;;;;;4958688;28;20629;-86
2022/12/30 09:50:37;;;;;;;13.02;2.60;;;;;;;;;;4964298;28;20130;-86
2022/12/30 09:53:21;;;;;;;9.95;2.42;;;;;;;;;;4962881;28;20038;-85
2022/12/30 09:56:02;;;;;;;15.02;2.75;;;;;;;;;;4964138;28;20063;-86
2022/12/30 09:58:32;;;;;;;14.50;2.78;;;;;;;;;;4980186;28;20086;-85
2022/12/30 10:01:23;;;;;;;13.15;2.85;;;;;;;;;;4964610;28;20032;-85
2022/12/30 10:03:55;;;;;;;17.83;2.90;;;;;;;;;;4978709;28;20121;-86
2022/12/30 10:06:52;;;;;;;8.45;2.55;;;;;;;;;;4963841;28;20054;-85
2022/12/30 10:09:48;;;;;;;9.07;2.40;;;;;;;;;;4965334;28;20031;-86
2022/12/30 10:12:50;;;;;;;10.82;2.45;;;;;;;;;;4964350;28;20043;-87
2022/12/30 10:15:36;;;;;;;16.25;2.30;;;;;;;;;;4964261;28;20098;-87
2022/12/30 10:18:28;;;;;;;7.18;1.92;;;;;;;;;;4979722;28;20094;-87
2022/12/30 10:21:05;;;;;;;10.20;2.40;;;;;;;;;;4968395;28;20042;-87
2022/12/30 10:23:52;;;;;;;12.45;2.42;;;;;;;;;;4981709;28;20054;-87
2022/12/30 10:26:53;;;;;;;6.35;2.05;;;;;;;;;;4963896;28;20043;-86
2022/12/30 10:29:27;;;;;;;5.45;2.17;;;;;;;;;;4960664;28;20043;-87
2022/12/30 10:31:58;;;;;;;8.95;2.60;;;;;;;;;;4961819;28;20053;-86
2022/12/30 10:35:02;;;;;;;12.77;2.35;;;;;;;;;;4976312;28;20089;-87
2022/12/30 10:37:32;;;;;;;13.00;2.08;;;;;;;;;;4963968;28;20054;-86
2022/12/30 10:40:33;;;;;;;7.90;1.60;;;;;;;;;;4961801;28;20089;-86
2022/12/30 10:43:50;;;;;;;8.57;2.10;;;;;;;;;;4961450;28;20093;-87
2022/12/30 10:46:55;;;;;;;8.13;1.85;;;;;;;;;;4959988;28;20130;-87
2022/12/30 10:49:55;;;;;;;7.53;1.83;;;;;;;;;;4960592;28;20050;-87
2022/12/30 10:52:25;;;;;;;14.00;2.40;;;;;;;;;;4961484;28;20054;-88
2022/12/30 10:54:54;;;;;;;5.78;1.83;;;;;;;;;;4972609;28;20039;-87
2022/12/30 10:57:26;;;;;;;9.32;1.98;;;;;;;;;;4961623;28;20135;-87
2022/12/30 11:00:20;;;;;;;7.97;2.08;;;;;;;;;;4959627;28;20031;-88
2022/12/30 11:03:02;;;;;;;11.98;2.65;;;;;;;;;;4959647;28;20122;-88
2022/12/30 11:05:39;;;;;;;14.43;2.47;;;;;;;;;;4960744;28;20039;-89
2022/12/30 11:08:22;;;;;;;5.85;1.65;;;;;;;;;;4960550;28;20050;-88
2022/12/30 11:11:03;;;;;;;9.57;1.98;;;;;;;;;;4979194;28;20051;-87
2022/12/30 11:17:24;;;;;;;12.27;2.13;;;;;;;;;;4959964;28;20046;-86
2022/12/30 11:20:19;;;;;;;7.00;1.95;;;;;;;;;;4971229;28;20039;-87
2022/12/30 11:22:54;;;;;;;10.38;1.80;;;;;;;;;;4970775;28;20047;-86
2022/12/30 11:25:29;;;;;;;9.88;1.83;;;;;;;;;;4968419;28;20129;-87
2022/12/30 11:28:01;;;;;;;11.30;1.58;;;;;;;;;;4969124;28;20150;-87
2022/12/30 11:30:31;;;;;;;9.50;2.03;;;;;;;;;;4960696;28;20445;-88
2022/12/30 11:33:06;;;;;;;6.65;1.55;;;;;;;;;;4958257;28;20069;-88
2022/12/30 11:36:30;;;;;;;7.20;1.85;;;;;;;;;;4961338;28;20035;-87
2022/12/30 11:39:04;;;;;;;9.57;1.67;;;;;;;;;;4964491;28;20031;-87
2022/12/30 11:41:47;;;;;;;7.10;1.52;;;;;;;;;;4966502;28;20046;-87
2022/12/30 11:44:19;;;;;;;6.15;1.48;;;;;;;;;;4975251;28;20047;-87
2022/12/30 11:46:50;;;;;;;6.40;1.40;;;;;;;;;;4950858;28;20119;-88
2022/12/30 11:49:53;;;;;;;10.65;1.90;;;;;;;;;;4952300;28;20452;-87
2022/12/30 11:52:26;;;;;;;9.93;1.60;;;;;;;;;;4959301;28;20440;-87
2022/12/30 11:55:23;;;;;;;7.47;1.80;;;;;;;;;;4960373;28;20054;-87
2022/12/30 11:57:59;;;;;;;5.93;1.48;;;;;;;;;;4990376;28;20039;-88
2022/12/30 12:00:37;;;;;;;6.50;1.17;;;;;;;;;;4967091;28;20042;-87
2022/12/30 12:03:15;;;;;;;5.05;1.20;;;;;;;;;;4966932;28;20489;-88
2022/12/30 12:05:48;;;;;;;6.70;1.27;;;;;;;;;;4981007;28;20057;-87
2022/12/30 12:08:31;;;;;;;9.18;1.70;;;;;;;;;;4967060;28;20073;-88
2022/12/30 12:11:08;;;;;;;6.78;1.77;;;;;;;;;;4977093;28;20042;-87
2022/12/30 12:14:00;;;;;;;8.40;1.80;;;;;;;;;;4989562;28;20058;-89
2022/12/30 12:17:24;;;;;;;6.97;1.58;;;;;;;;;;4970311;28;20130;-87
2022/12/30 12:20:27;;;;;;;7.75;1.63;;;;;;;;;;4973230;28;20481;-87
2022/12/30 12:23:05;;;;;;;7.18;1.38;;;;;;;;;;4982797;28;20145;-86
2022/12/30 12:25:58;;;;;;;6.78;1.73;;;;;;;;;;4974891;28;20050;-87
2022/12/30 12:28:32;;;;;;;8.30;1.45;;;;;;;;;;4977115;28;20031;-87
2022/12/30 12:31:26;;;;;;;13.00;2.03;;;;;;;;;;4976026;28;20050;-87
2022/12/30 12:34:19;;;;;;;6.63;1.33;;;;;;;;;;4981096;28;20093;-87
2022/12/30 12:37:17;;;;;;;8.55;1.77;;;;;;;;;;4976205;28;20031;-87
2022/12/30 12:39:55;;;;;;;6.00;1.55;;;;;;;;;;4979985;28;20035;-87
2022/12/30 12:42:52;;;;;;;5.25;1.50;;;;;;;;;;4972326;28;20398;-86
2022/12/30 12:45:46;;;;;;;6.00;1.60;;;;;;;;;;4977756;28;20039;-86
2022/12/30 12:48:59;;;;;;;6.25;1.42;;;;;;;;;;4974063;28;20413;-87
2022/12/30 12:51:45;;;;;;;7.35;1.65;;;;;;;;;;4977908;28;20919;-86
2022/12/30 12:54:30;;;;;;;11.70;1.80;;;;;;;;;;4977997;28;20042;-87
2022/12/30 12:58:04;;;;;;;7.05;1.40;;;;;;;;;;4979421;28;20039;-87
2022/12/30 13:00:50;;;;;;;6.65;1.25;;;;;;;;;;4982466;28;20049;-87
2022/12/30 13:03:26;;;;;;;8.65;2.10;;;;;;;;;;4980387;28;20114;-88
2022/12/30 13:06:17;;;;;;;9.38;1.92;;;;;;;;;;4973869;28;20078;-87
2022/12/30 13:09:17;;;;;;;8.23;1.70;;;;;;;;;;4975090;28;20070;-88
2022/12/30 13:11:51;;;;;;;7.75;1.65;;;;;;;;;;4994816;28;20039;-87
2022/12/30 13:14:39;;;;;;;9.77;1.45;;;;;;;;;;4977393;28;20030;-88
2022/12/30 13:17:45;;;;;;;4.70;1.13;;;;;;;;;;4990221;28;20042;-88
2022/12/30 13:20:18;;;;;;;6.88;1.60;;;;;;;;;;4988606;28;20446;-88
2022/12/30 13:22:52;;;;;;;9.85;1.50;;;;;;;;;;4954831;28;20055;-88
2022/12/30 13:25:32;;;;;;;6.97;1.38;;;;;;;;;;4994164;28;20062;-88
2022/12/30 13:28:15;;;;;;;9.80;1.45;;;;;;;;;;4983494;28;20035;-89
2022/12/30 13:31:26;;;;;;;7.57;1.15;;;;;;;;;;5000252;28;20026;-89
2022/12/30 13:34:10;;;;;;;4.45;1.10;;;;;;;;;;4975620;28;20047;-89
2022/12/30 13:36:44;;;;;;;6.57;1.70;;;;;;;;;;4977311;28;20062;-89
2022/12/30 13:39:24;;;;;;;5.95;1.48;;;;;;;;;;4965931;28;20374;-88
2022/12/30 13:42:10;;;;;;;5.30;1.50;;;;;;;;;;4983028;28;20062;-88
2022/12/30 13:44:45;;;;;;;8.48;1.40;;;;;;;;;;4974923;28;20059;-87
2022/12/30 13:47:37;;;;;;;4.72;1.45;;;;;;;;;;4969824;28;20425;-87
2022/12/30 13:50:22;;;;;;;4.93;1.35;;;;;;;;;;4984604;28;20049;-88
2022/12/30 13:52:56;;;;;;;4.05;1.20;;;;;;;;;;4978905;28;20058;-88
2022/12/30 13:55:33;;;;;;;10.73;1.55;;;;;;;;;;4978048;28;20058;-87
2022/12/30 13:58:24;;;;;;;8.60;1.52;;;;;;;;;;4983965;28;20106;-88
2022/12/30 14:01:22;;;;;;;4.95;1.23;;;;;;;;;;4959106;28;20047;-88
2022/12/30 14:04:10;;;;;;;3.28;1.38;;;;;;;;;;4998756;28;20039;-87
2022/12/30 14:07:46;;;;;;;;;;;;;;;;;;4992965;28;20053;-87
2022/12/30 14:10:29;;;;;;;8.03;1.30;;;;;;;;;;4986665;28;19997;-87
2022/12/30 14:13:31;;;;;;;10.77;1.55;;;;;;;;;;4973862;28;20039;-87
2022/12/30 14:16:44;;;;;;;10.13;1.80;;;;;;;;;;4985120;28;20031;-87
2022/12/30 14:19:20;;;;;;;10.07;1.63;;;;;;;;;;4968729;28;20133;-87
2022/12/30 14:22:38;;;;;;;6.68;1.30;;;;;;;;;;4992839;28;20102;-87
2022/12/30 14:25:16;;;;;;;8.40;1.48;;;;;;;;;;4969931;28;20046;-87
2022/12/30 14:27:51;;;;;;;3.03;1.02;;;;;;;;;;4986543;28;20058;-87
2022/12/30 14:30:38;;;;;;;7.55;1.48;;;;;;;;;;4965950;28;20130;-87
2022/12/30 14:33:13;;;;;;;8.52;1.70;;;;;;;;;;4945708;29;20065;-88
2022/12/30 14:35:54;;;;;;;7.50;1.55;;;;;;;;;;4945349;28;20039;-88
2022/12/30 14:38:48;;;;;;;3.85;1.30;;;;;;;;;;4954963;28;20413;-88
2022/12/30 14:41:18;;;;;;;6.18;1.42;;;;;;;;;;4961371;28;20047;-88
2022/12/30 14:43:52;;;;;;;7.80;1.80;;;;;;;;;;4963129;28;20154;-88
2022/12/30 14:46:41;;;;;;;4.45;1.92;;;;;;;;;;4993797;28;20043;-88
2022/12/30 14:49:23;;;;;;;6.55;1.80;;;;;;;;;;5001288;28;20031;-88
2022/12/30 14:51:58;;;;;;;6.82;1.52;;;;;;;;;;4972739;28;20047;-88
2022/12/30 14:55:31;;;;;;;8.57;1.60;;;;;;;;;;4987751;28;20083;-88
2022/12/30 14:58:18;;;;;;;8.05;1.73;;;;;;;;;;4969551;28;20054;-88
2022/12/30 15:00:51;;;;;;;7.07;1.50;;;;;;;;;;4995936;28;20050;-88
2022/12/30 15:03:29;;;;;;;6.40;1.42;;;;;;;;;;4949093;29;20099;-88
2022/12/30 15:06:00;;;;;;;5.72;1.55;;;;;;;;;;4975149;28;20145;-88
2022/12/30 15:08:53;;;;;;;7.80;2.25;;;;;;;;;;4993693;28;20045;-88
2022/12/30 15:11:23;;;;;;;5.50;1.52;;;;;;;;;;4981962;28;20110;-88
2022/12/30 15:13:55;;;;;;;3.78;1.73;;;;;;;;;;4969580;28;20035;-88
2022/12/30 15:16:26;;;;;;;6.60;1.40;;;;;;;;;;4968805;28;20565;-89
2022/12/30 15:18:56;;;;;;;3.15;1.20;;;;;;;;;;4983471;28;20074;-88
2022/12/30 15:21:33;;;;;;;7.10;1.40;;;;;;;;;;4963671;28;20505;-88
2022/12/30 15:24:25;;;;;;;7.30;1.63;;;;;;;;;;4981137;28;20060;-88
2022/12/30 15:26:54;;;;;;;7.63;1.70;;;;;;;;;;4980926;28;20413;-88
2022/12/30 15:29:40;;;;;;;7.35;1.70;;;;;;;;;;4957040;28;20044;-88
2022/12/30 15:32:28;;;;;;;5.32;1.92;;;;;;;;;;4973441;28;20055;-88
2022/12/30 15:35:28;;;;;;;6.10;2.08;;;;;;;;;;5003230;28;20065;-88
2022/12/30 15:38:03;;;;;;;5.63;1.67;;;;;;;;;;4984624;28;20055;-88
2022/12/30 15:40:31;;;;;;;7.47;2.58;;;;;;;;;;4988124;28;20066;-88
2022/12/30 15:43:09;;;;;;;11.85;2.33;;;;;;;;;;4989911;28;20058;-88
2022/12/30 15:45:41;;;;;;;9.70;1.80;;;;;;;;;;4986649;28;20043;-88
2022/12/30 15:48:20;;;;;;;6.18;1.50;;;;;;;;;;4984497;28;20043;-88
2022/12/30 15:50:54;;;;;;;6.00;2.10;;;;;;;;;;4982367;28;20134;-89
2022/12/30 15:53:28;;;;;;;8.23;2.25;;;;;;;;;;4988571;28;20055;-88
2022/12/30 15:55:56;;;;;;;7.72;1.90;;;;;;;;;;4966711;28;20046;-88
2022/12/30 15:58:38;;;;;;;8.13;1.88;;;;;;;;;;4968623;28;20043;-88
2022/12/30 16:01:18;;;;;;;7.65;1.67;;;;;;;;;;4975030;28;20082;-89
2022/12/30 16:04:06;;;;;;;9.30;1.98;;;;;;;;;;4966859;28;20051;-89
2022/12/30 16:07:00;;;;;;;3.25;1.33;;;;;;;;;;4991517;28;20049;-88
2022/12/30 16:09:56;;;;;;;12.63;1.80;;;;;;;;;;4999996;28;20063;-88
2022/12/30 16:12:58;;;;;;;4.90;1.73;;;;;;;;;;4994228;28;20039;-88
2022/12/30 16:15:41;;;;;;;4.07;1.73;;;;;;;;;;4963296;28;20567;-87
2022/12/30 16:18:19;;;;;;;4.72;1.65;;;;;;;;;;4970591;28;20569;-88
2022/12/30 16:21:12;;;;;;;3.70;1.10;;;;;;;;;;4974888;28;20031;-87
2022/12/30 16:23:44;;;;;;;4.38;1.50;;;;;;;;;;4973636;28;20027;-88
2022/12/30 16:26:27;;;;;;;5.18;1.50;;;;;;;;;;4982172;28;20051;-88
2022/12/30 16:29:22;;;;;;;7.60;1.95;;;;;;;;;;4974704;28;20489;-88
2022/12/30 16:31:54;;;;;;;4.03;1.67;;;;;;;;;;4971735;28;20042;-88
2022/12/30 16:34:23;;;;;;;6.97;2.28;;;;;;;;;;4974197;28;20398;-88
2022/12/30 16:37:30;;;;;;;6.05;1.63;;;;;;;;;;4973592;28;20067;-87
2022/12/30 16:40:23;;;;;;;10.02;2.08;;;;;;;;;;4964201;28;20606;-88
2022/12/30 16:42:56;;;;;;;8.65;1.95;;;;;;;;;;4968890;28;20102;-88